Oostburg, Wisconsin
Current Conditions -  °F | °C
As of 2:53 PM on Thursday 23 Oct 2014 (Local Time) from KSBM Reporting Station
Broken Clouds Broken Clouds  
Wind Chill: 52°   Ceiling: 12000
Heat Index: 52°   Visibility: 10mi
Dew Point: 43°   Wind: 9mph
Humidity: 71%   Direction: 140°SE
Pressure: 30.07"   Gusts: NA
Location:  43.62°N, 87.79°W
Report Text: KSBM 231953Z AUTO 14008KT 10SM BKN120 11/06 A3007 RMK AO2 SLP186 T01110061
Loading
Personal Weather Stations






























Interactive Weather Map New forecast layout! Learn more

10-Day Weather Forecast

Advertisements
Track Severe Weather on mobile